Terminal Aerodrome Forecast
Issued by NWS Quad Cities IA IL

Home | Current Version | Previous Version | Text Only | Print | Product List | Glossary On
Versions: 1 2 3 4 5 6 7 8 9 10 11 12 13 14 15 16 17 18 19 20 21 22 23 24
000
FTUS43 KDVN 030846 AAA
TAFMLI
TAF AMD
KMLI 030846Z 0309/0406 18007KT P6SM VCTS SCT090CB BKN200
      TEMPO 0310/0311 6SM -TSRA BR BKN070CB
     FM031500 20012G22KT P6SM FEW080 BKN150
     FM040100 19007KT P6SM FEW050 SCT250=

USA.gov is the U.S. government's official web portal to all federal, state and local government web resources and services.